sensor_id;sensor_type;location;lat;lon;timestamp;pressure;altitude;pressure_sealevel;temperature;humidity
19086;BME280;9675;51.538;6.728;2023-04-15T00:00:17;100441.75;;;11.84;58.14
19086;BME280;9675;51.538;6.728;2023-04-15T00:02:46;100439.97;;;11.83;57.73
19086;BME280;9675;51.538;6.728;2023-04-15T00:05:14;100443.34;;;11.80;57.46
19086;BME280;9675;51.538;6.728;2023-04-15T00:07:41;100431.19;;;11.78;58.78
19086;BME280;9675;51.538;6.728;2023-04-15T00:10:10;100434.56;;;11.75;57.61
19086;BME280;9675;51.538;6.728;2023-04-15T00:12:37;100435.28;;;11.73;58.39
19086;BME280;9675;51.538;6.728;2023-04-15T00:15:05;100436.03;;;11.70;58.43
19086;BME280;9675;51.538;6.728;2023-04-15T00:17:33;100439.38;;;11.68;58.17
19086;BME280;9675;51.538;6.728;2023-04-15T00:20:02;100442.75;;;11.67;59.07
19086;BME280;9675;51.538;6.728;2023-04-15T00:22:31;100447.91;;;11.67;58.47
19086;BME280;9675;51.538;6.728;2023-04-15T00:24:58;100444.34;;;11.63;58.69
19086;BME280;9675;51.538;6.728;2023-04-15T00:27:25;100439.94;;;11.61;59.20
19086;BME280;9675;51.538;6.728;2023-04-15T00:29:53;100436.38;;;11.57;59.29
19086;BME280;9675;51.538;6.728;2023-04-15T00:32:19;100449.19;;;11.56;59.55
19086;BME280;9675;51.538;6.728;2023-04-15T00:34:47;100445.69;;;11.54;59.08
19086;BME280;9675;51.538;6.728;2023-04-15T00:37:15;100445.56;;;11.50;59.59
19086;BME280;9675;51.538;6.728;2023-04-15T00:39:42;100443.69;;;11.46;59.57
19086;BME280;9675;51.538;6.728;2023-04-15T00:42:09;100444.47;;;11.44;59.83
19086;BME280;9675;51.538;6.728;2023-04-15T00:44:36;100450.38;;;11.41;59.48
19086;BME280;9675;51.538;6.728;2023-04-15T00:47:04;100446.88;;;11.39;59.90
19086;BME280;9675;51.538;6.728;2023-04-15T00:49:32;100455.41;;;11.38;60.25
19086;BME280;9675;51.538;6.728;2023-04-15T00:51:59;100454.38;;;11.35;60.21
19086;BME280;9675;51.538;6.728;2023-04-15T00:54:27;100450.00;;;11.32;60.32
19086;BME280;9675;51.538;6.728;2023-04-15T00:56:54;100461.94;;;11.30;60.33
19086;BME280;9675;51.538;6.728;2023-04-15T00:59:23;100460.22;;;11.29;60.22
19086;BME280;9675;51.538;6.728;2023-04-15T01:01:50;100462.63;;;11.26;60.56
19086;BME280;9675;51.538;6.728;2023-04-15T01:04:17;100457.41;;;11.25;60.43
19086;BME280;9675;51.538;6.728;2023-04-15T01:06:44;100451.34;;;11.23;60.67
19086;BME280;9675;51.538;6.728;2023-04-15T01:09:11;100454.66;;;11.20;60.81
19086;BME280;9675;51.538;6.728;2023-04-15T01:11:40;100445.94;;;11.17;61.19
19086;BME280;9675;51.538;6.728;2023-04-15T01:14:08;100437.88;;;11.09;61.51
19086;BME280;9675;51.538;6.728;2023-04-15T01:16:36;100448.31;;;11.12;62.43
19086;BME280;9675;51.538;6.728;2023-04-15T01:19:05;100449.06;;;11.09;62.31
19086;BME280;9675;51.538;6.728;2023-04-15T01:21:36;100446.44;;;11.08;62.31
19086;BME280;9675;51.538;6.728;2023-04-15T01:24:09;100442.84;;;11.04;62.55
19086;BME280;9675;51.538;6.728;2023-04-15T01:26:39;100447.88;;;11.01;63.87
19086;BME280;9675;51.538;6.728;2023-04-15T01:29:06;100447.69;;;10.97;64.00
19086;BME280;9675;51.538;6.728;2023-04-15T01:31:33;100441.59;;;10.95;64.86
19086;BME280;9675;51.538;6.728;2023-04-15T01:34:01;100443.25;;;10.93;64.35
19086;BME280;9675;51.538;6.728;2023-04-15T01:36:28;100443.16;;;10.91;65.06
19086;BME280;9675;51.538;6.728;2023-04-15T01:38:56;100448.19;;;10.88;65.02
19086;BME280;9675;51.538;6.728;2023-04-15T01:41:25;100448.13;;;10.87;65.67
19086;BME280;9675;51.538;6.728;2023-04-15T01:43:54;100459.25;;;10.86;66.00
19086;BME280;9675;51.538;6.728;2023-04-15T01:46:21;100456.59;;;10.84;66.04
19086;BME280;9675;51.538;6.728;2023-04-15T01:48:48;100455.59;;;10.81;66.42
19086;BME280;9675;51.538;6.728;2023-04-15T01:51:15;100463.13;;;10.76;66.56
19086;BME280;9675;51.538;6.728;2023-04-15T01:53:42;100457.03;;;10.74;67.44
19086;BME280;9675;51.538;6.728;2023-04-15T01:56:09;100447.50;;;10.72;67.18
19086;BME280;9675;51.538;6.728;2023-04-15T01:58:37;100456.03;;;10.71;67.93
19086;BME280;9675;51.538;6.728;2023-04-15T02:01:06;100456.66;;;10.65;68.18
19086;BME280;9675;51.538;6.728;2023-04-15T02:03:35;100455.69;;;10.63;68.89
19086;BME280;9675;51.538;6.728;2023-04-15T02:06:03;100451.38;;;10.62;68.61
19086;BME280;9675;51.538;6.728;2023-04-15T02:08:32;100451.22;;;10.59;69.28
19086;BME280;9675;51.538;6.728;2023-04-15T02:10:59;100451.09;;;10.56;69.47
19086;BME280;9675;51.538;6.728;2023-04-15T02:13:26;100454.41;;;10.53;70.29
19086;BME280;9675;51.538;6.728;2023-04-15T02:15:54;100450.03;;;10.51;69.90
19086;BME280;9675;51.538;6.728;2023-04-15T02:18:23;100448.94;;;10.46;70.67
19086;BME280;9675;51.538;6.728;2023-04-15T02:20:50;100448.88;;;10.44;71.35
19086;BME280;9675;51.538;6.728;2023-04-15T02:23:24;100446.19;;;10.41;71.13
19086;BME280;9675;51.538;6.728;2023-04-15T02:25:52;100451.97;;;10.37;71.74
19086;BME280;9675;51.538;6.728;2023-04-15T02:28:20;100455.25;;;10.33;71.54
19086;BME280;9675;51.538;6.728;2023-04-15T02:30:48;100463.78;;;10.32;72.42
19086;BME280;9675;51.538;6.728;2023-04-15T02:33:17;100466.31;;;10.31;72.53
19086;BME280;9675;51.538;6.728;2023-04-15T02:35:45;100461.06;;;10.29;72.45
19086;BME280;9675;51.538;6.728;2023-04-15T02:38:12;100471.22;;;10.26;72.37
19086;BME280;9675;51.538;6.728;2023-04-15T02:40:41;100477.84;;;10.21;72.87
19086;BME280;9675;51.538;6.728;2023-04-15T02:43:08;100483.00;;;10.21;73.09
19086;BME280;9675;51.538;6.728;2023-04-15T02:45:35;100483.84;;;10.20;73.24
19086;BME280;9675;51.538;6.728;2023-04-15T02:48:02;100483.75;;;10.18;73.39
19086;BME280;9675;51.538;6.728;2023-04-15T02:50:31;100488.75;;;10.15;73.33
19086;BME280;9675;51.538;6.728;2023-04-15T02:52:59;100487.69;;;10.12;74.14
19086;BME280;9675;51.538;6.728;2023-04-15T02:55:27;100496.09;;;10.08;74.47
19086;BME280;9675;51.538;6.728;2023-04-15T02:57:54;100490.81;;;10.05;74.12
19086;BME280;9675;51.538;6.728;2023-04-15T03:00:23;100489.84;;;10.03;74.98
19086;BME280;9675;51.538;6.728;2023-04-15T03:02:57;100491.47;;;10.01;75.02
19086;BME280;9675;51.538;6.728;2023-04-15T03:05:25;100496.41;;;9.96;75.70
19086;BME280;9675;51.538;6.728;2023-04-15T03:07:53;100497.16;;;9.94;75.70
19086;BME280;9675;51.538;6.728;2023-04-15T03:10:21;100489.38;;;9.92;75.40
19086;BME280;9675;51.538;6.728;2023-04-15T03:12:48;100499.53;;;9.89;76.59
19086;BME280;9675;51.538;6.728;2023-04-15T03:15:16;100503.69;;;9.87;76.31
19086;BME280;9675;51.538;6.728;2023-04-15T03:17:43;100502.69;;;9.84;76.33
19086;BME280;9675;51.538;6.728;2023-04-15T03:20:10;100498.19;;;9.79;77.13
19086;BME280;9675;51.538;6.728;2023-04-15T03:22:37;100498.94;;;9.77;78.38
19086;BME280;9675;51.538;6.728;2023-04-15T03:25:05;100503.06;;;9.73;79.13
19086;BME280;9675;51.538;6.728;2023-04-15T03:27:33;100495.19;;;9.70;78.99
19086;BME280;9675;51.538;6.728;2023-04-15T03:30:00;100504.66;;;9.71;78.46
19086;BME280;9675;51.538;6.728;2023-04-15T03:32:28;100495.06;;;9.67;78.76
19086;BME280;9675;51.538;6.728;2023-04-15T03:34:54;100491.53;;;9.65;79.59
19086;BME280;9675;51.538;6.728;2023-04-15T03:37:22;100500.88;;;9.63;79.62
19086;BME280;9675;51.538;6.728;2023-04-15T03:39:49;100505.84;;;9.60;79.83
19086;BME280;9675;51.538;6.728;2023-04-15T03:42:16;100505.75;;;9.59;80.36
19086;BME280;9675;51.538;6.728;2023-04-15T03:44:44;100509.16;;;9.58;80.10
19086;BME280;9675;51.538;6.728;2023-04-15T03:47:11;100508.19;;;9.56;80.17
19086;BME280;9675;51.538;6.728;2023-04-15T03:49:38;100519.16;;;9.52;81.71
19086;BME280;9675;51.538;6.728;2023-04-15T03:52:05;100509.53;;;9.48;82.70
19086;BME280;9675;51.538;6.728;2023-04-15T03:54:32;100525.75;;;9.47;81.82
19086;BME280;9675;51.538;6.728;2023-04-15T03:56:59;100518.75;;;9.44;84.00
19086;BME280;9675;51.538;6.728;2023-04-15T03:59:26;100526.34;;;9.41;83.82
19086;BME280;9675;51.538;6.728;2023-04-15T04:01:54;100537.34;;;9.38;84.61
19086;BME280;9675;51.538;6.728;2023-04-15T04:04:21;100533.75;;;9.35;84.70
19086;BME280;9675;51.538;6.728;2023-04-15T04:06:48;100538.78;;;9.33;85.43
19086;BME280;9675;51.538;6.728;2023-04-15T04:09:15;100543.78;;;9.30;85.64
19086;BME280;9675;51.538;6.728;2023-04-15T04:11:42;100546.28;;;9.29;86.84
19086;BME280;9675;51.538;6.728;2023-04-15T04:14:10;100550.47;;;9.27;87.04
19086;BME280;9675;51.538;6.728;2023-04-15T04:16:37;100546.94;;;9.25;88.68
19086;BME280;9675;51.538;6.728;2023-04-15T04:19:05;100554.56;;;9.23;88.01
19086;BME280;9675;51.538;6.728;2023-04-15T04:21:32;100550.00;;;9.18;88.65
19086;BME280;9675;51.538;6.728;2023-04-15T04:23:59;100544.72;;;9.15;89.77
19086;BME280;9675;51.538;6.728;2023-04-15T04:26:26;100548.09;;;9.14;89.09
19086;BME280;9675;51.538;6.728;2023-04-15T04:28:53;100546.31;;;9.13;89.77
19086;BME280;9675;51.538;6.728;2023-04-15T04:31:21;100556.44;;;9.10;90.69
19086;BME280;9675;51.538;6.728;2023-04-15T04:33:48;100559.03;;;9.10;91.73
19086;BME280;9675;51.538;6.728;2023-04-15T04:36:16;100551.16;;;9.07;92.28
19086;BME280;9675;51.538;6.728;2023-04-15T04:38:43;100562.16;;;9.04;92.17
19086;BME280;9675;51.538;6.728;2023-04-15T04:41:10;100559.69;;;9.06;92.75
19086;BME280;9675;51.538;6.728;2023-04-15T04:43:37;100563.75;;;9.02;92.32
19086;BME280;9675;51.538;6.728;2023-04-15T04:46:04;100564.50;;;9.00;95.01
19086;BME280;9675;51.538;6.728;2023-04-15T04:48:31;100568.75;;;8.99;94.94
19086;BME280;9675;51.538;6.728;2023-04-15T04:50:59;100569.44;;;8.96;95.73
19086;BME280;9675;51.538;6.728;2023-04-15T04:53:27;100562.59;;;8.95;95.35
19086;BME280;9675;51.538;6.728;2023-04-15T04:55:54;100565.19;;;8.97;96.25
19086;BME280;9675;51.538;6.728;2023-04-15T04:58:21;100576.34;;;8.98;96.16
19086;BME280;9675;51.538;6.728;2023-04-15T05:00:48;100576.94;;;8.92;96.26
19086;BME280;9675;51.538;6.728;2023-04-15T05:03:15;100582.94;;;8.92;96.86
19086;BME280;9675;51.538;6.728;2023-04-15T05:05:42;100585.47;;;8.91;96.71
19086;BME280;9675;51.538;6.728;2023-04-15T05:08:09;100586.97;;;8.87;98.23
19086;BME280;9675;51.538;6.728;2023-04-15T05:10:38;100592.09;;;8.87;99.11
19086;BME280;9675;51.538;6.728;2023-04-15T05:13:05;100581.69;;;8.84;99.03
19086;BME280;9675;51.538;6.728;2023-04-15T05:15:32;100585.84;;;8.82;99.68
19086;BME280;9675;51.538;6.728;2023-04-15T05:18:01;100601.25;;;8.82;99.65
19086;BME280;9675;51.538;6.728;2023-04-15T05:20:28;100598.44;;;8.78;100.00
19086;BME280;9675;51.538;6.728;2023-04-15T05:22:55;100599.19;;;8.75;100.00
19086;BME280;9675;51.538;6.728;2023-04-15T05:25:22;100611.03;;;8.73;100.00
19086;BME280;9675;51.538;6.728;2023-04-15T05:27:51;100610.25;;;8.74;100.00
19086;BME280;9675;51.538;6.728;2023-04-15T05:30:18;100615.19;;;8.71;100.00
19086;BME280;9675;51.538;6.728;2023-04-15T05:32:45;100615.03;;;8.68;100.00
19086;BME280;9675;51.538;6.728;2023-04-15T05:35:12;100617.63;;;8.68;100.00
19086;BME280;9675;51.538;6.728;2023-04-15T05:37:39;100624.34;;;8.66;100.00
19086;BME280;9675;51.538;6.728;2023-04-15T05:40:07;100627.00;;;8.68;100.00
19086;BME280;9675;51.538;6.728;2023-04-15T05:42:35;100628.69;;;8.67;100.00
19086;BME280;9675;51.538;6.728;2023-04-15T05:45:05;100629.47;;;8.66;100.00
19086;BME280;9675;51.538;6.728;2023-04-15T05:47:34;100638.00;;;8.65;100.00
19086;BME280;9675;51.538;6.728;2023-04-15T05:50:02;100640.56;;;8.65;100.00
19086;BME280;9675;51.538;6.728;2023-04-15T05:52:29;100641.41;;;8.66;100.00
19086;BME280;9675;51.538;6.728;2023-04-15T05:54:56;100647.38;;;8.65;100.00
19086;BME280;9675;51.538;6.728;2023-04-15T05:57:23;100649.94;;;8.65;100.00
19086;BME280;9675;51.538;6.728;2023-04-15T05:59:50;100660.03;;;8.62;100.00
19086;BME280;9675;51.538;6.728;2023-04-15T06:02:18;100656.56;;;8.61;100.00
19086;BME280;9675;51.538;6.728;2023-04-15T06:04:46;100661.69;;;8.61;100.00
19086;BME280;9675;51.538;6.728;2023-04-15T06:07:13;100667.81;;;8.63;100.00
19086;BME280;9675;51.538;6.728;2023-04-15T06:09:40;100668.59;;;8.62;100.00
19086;BME280;9675;51.538;6.728;2023-04-15T06:12:07;100674.63;;;8.63;100.00
19086;BME280;9675;51.538;6.728;2023-04-15T06:14:36;100672.84;;;8.62;100.00
19086;BME280;9675;51.538;6.728;2023-04-15T06:17:03;100681.44;;;8.62;100.00
19086;BME280;9675;51.538;6.728;2023-04-15T06:19:32;100681.44;;;8.62;100.00
19086;BME280;9675;51.538;6.728;2023-04-15T06:21:59;100680.75;;;8.65;100.00
19086;BME280;9675;51.538;6.728;2023-04-15T06:24:26;100687.56;;;8.64;100.00
19086;BME280;9675;51.538;6.728;2023-04-15T06:26:54;100684.19;;;8.65;100.00
19086;BME280;9675;51.538;6.728;2023-04-15T06:29:21;100694.53;;;8.67;100.00
19086;BME280;9675;51.538;6.728;2023-04-15T06:31:48;100697.09;;;8.67;100.00
19086;BME280;9675;51.538;6.728;2023-04-15T06:34:15;100697.97;;;8.67;100.00
19086;BME280;9675;51.538;6.728;2023-04-15T06:36:43;100707.53;;;8.70;100.00
19086;BME280;9675;51.538;6.728;2023-04-15T06:39:10;100705.03;;;8.71;100.00
19086;BME280;9675;51.538;6.728;2023-04-15T06:41:43;100711.94;;;8.72;100.00
19086;BME280;9675;51.538;6.728;2023-04-15T06:44:10;100717.25;;;8.75;100.00
19086;BME280;9675;51.538;6.728;2023-04-15T06:46:37;100709.63;;;8.77;100.00
19086;BME280;9675;51.538;6.728;2023-04-15T06:49:04;100714.84;;;8.78;100.00
19086;BME280;9675;51.538;6.728;2023-04-15T06:51:31;100714.13;;;8.81;100.00
19086;BME280;9675;51.538;6.728;2023-04-15T06:54:00;100711.72;;;8.84;100.00
19086;BME280;9675;51.538;6.728;2023-04-15T06:56:27;100712.78;;;8.87;100.00
19086;BME280;9675;51.538;6.728;2023-04-15T06:58:54;100721.59;;;8.92;100.00
19086;BME280;9675;51.538;6.728;2023-04-15T07:01:22;100725.16;;;8.94;100.00
19086;BME280;9675;51.538;6.728;2023-04-15T07:03:49;100728.75;;;8.98;100.00
19086;BME280;9675;51.538;6.728;2023-04-15T07:06:16;100726.38;;;9.01;100.00
19086;BME280;9675;51.538;6.728;2023-04-15T07:08:43;100729.00;;;9.03;100.00
19086;BME280;9675;51.538;6.728;2023-04-15T07:11:11;100737.84;;;9.08;100.00
19086;BME280;9675;51.538;6.728;2023-04-15T07:13:38;100735.44;;;9.11;100.00
19086;BME280;9675;51.538;6.728;2023-04-15T07:16:06;100731.44;;;9.16;100.00
19086;BME280;9675;51.538;6.728;2023-04-15T07:18:33;100736.72;;;9.19;100.00
19086;BME280;9675;51.538;6.728;2023-04-15T07:21:00;100741.22;;;9.23;100.00
19086;BME280;9675;51.538;6.728;2023-04-15T07:23:27;100745.75;;;9.27;100.00
19086;BME280;9675;51.538;6.728;2023-04-15T07:25:55;100750.31;;;9.32;100.00
19086;BME280;9675;51.538;6.728;2023-04-15T07:28:23;100743.66;;;9.36;100.00
19086;BME280;9675;51.538;6.728;2023-04-15T07:30:50;100750.69;;;9.40;100.00
19086;BME280;9675;51.538;6.728;2023-04-15T07:33:18;100758.75;;;9.46;100.00
19086;BME280;9675;51.538;6.728;2023-04-15T07:35:45;100761.63;;;9.52;100.00
19086;BME280;9675;51.538;6.728;2023-04-15T07:38:12;100767.00;;;9.57;100.00
19086;BME280;9675;51.538;6.728;2023-04-15T07:40:39;100764.69;;;9.61;100.00
19086;BME280;9675;51.538;6.728;2023-04-15T07:43:07;100777.84;;;9.67;100.00
19086;BME280;9675;51.538;6.728;2023-04-15T07:45:36;100773.03;;;9.73;100.00
19086;BME280;9675;51.538;6.728;2023-04-15T07:48:04;100756.94;;;9.77;100.00
19086;BME280;9675;51.538;6.728;2023-04-15T07:50:31;100760.63;;;9.82;100.00
19086;BME280;9675;51.538;6.728;2023-04-15T07:52:58;100757.50;;;9.88;100.00
19086;BME280;9675;51.538;6.728;2023-04-15T07:55:25;100759.50;;;9.94;100.00
19086;BME280;9675;51.538;6.728;2023-04-15T07:57:52;100768.34;;;9.99;100.00
19086;BME280;9675;51.538;6.728;2023-04-15T08:00:19;100767.81;;;10.06;100.00
19086;BME280;9675;51.538;6.728;2023-04-15T08:02:48;100767.19;;;10.10;100.00
19086;BME280;9675;51.538;6.728;2023-04-15T08:05:18;100770.88;;;10.15;100.00
19086;BME280;9675;51.538;6.728;2023-04-15T08:07:45;100777.97;;;10.19;100.00
19086;BME280;9675;51.538;6.728;2023-04-15T08:10:13;100782.53;;;10.25;100.00
19086;BME280;9675;51.538;6.728;2023-04-15T08:12:40;100783.56;;;10.28;100.00
19086;BME280;9675;51.538;6.728;2023-04-15T08:15:09;100780.19;;;10.29;100.00
19086;BME280;9675;51.538;6.728;2023-04-15T08:17:36;100783.88;;;10.34;100.00
19086;BME280;9675;51.538;6.728;2023-04-15T08:20:06;100781.59;;;10.40;100.00
19086;BME280;9675;51.538;6.728;2023-04-15T08:22:33;100792.91;;;10.44;100.00
19086;BME280;9675;51.538;6.728;2023-04-15T08:25:01;100787.19;;;10.49;100.00
19086;BME280;9675;51.538;6.728;2023-04-15T08:27:28;100806.31;;;10.54;100.00
19086;BME280;9675;51.538;6.728;2023-04-15T08:29:55;100792.78;;;10.58;100.00
19086;BME280;9675;51.538;6.728;2023-04-15T08:32:22;100807.56;;;10.62;99.43
19086;BME280;9675;51.538;6.728;2023-04-15T08:34:51;100797.41;;;10.65;97.75
19086;BME280;9675;51.538;6.728;2023-04-15T08:37:19;100800.13;;;10.69;97.30
19086;BME280;9675;51.538;6.728;2023-04-15T08:39:47;100807.19;;;10.73;96.67
19086;BME280;9675;51.538;6.728;2023-04-15T08:42:16;100799.72;;;10.77;95.50
19086;BME280;9675;51.538;6.728;2023-04-15T08:44:46;100799.84;;;10.80;94.44
19086;BME280;9675;51.538;6.728;2023-04-15T08:47:16;100802.63;;;10.85;94.38
19086;BME280;9675;51.538;6.728;2023-04-15T08:49:46;100807.94;;;10.88;94.03
19086;BME280;9675;51.538;6.728;2023-04-15T08:52:20;100812.56;;;10.95;94.24
19086;BME280;9675;51.538;6.728;2023-04-15T08:54:47;100818.00;;;11.01;93.78
19086;BME280;9675;51.538;6.728;2023-04-15T08:57:15;100819.03;;;11.04;93.45
19086;BME280;9675;51.538;6.728;2023-04-15T08:59:42;100818.44;;;11.10;92.64
19086;BME280;9675;51.538;6.728;2023-04-15T09:02:10;100834.19;;;11.16;93.02
19086;BME280;9675;51.538;6.728;2023-04-15T09:04:38;100822.41;;;11.21;91.03
19086;BME280;9675;51.538;6.728;2023-04-15T09:07:05;100828.56;;;11.25;89.28
19086;BME280;9675;51.538;6.728;2023-04-15T09:09:33;100834.78;;;11.28;88.21
19086;BME280;9675;51.538;6.728;2023-04-15T09:12:02;100824.59;;;11.31;86.75
19086;BME280;9675;51.538;6.728;2023-04-15T09:14:29;100831.59;;;11.34;86.85
19086;BME280;9675;51.538;6.728;2023-04-15T09:16:59;100833.56;;;11.39;86.33
19086;BME280;9675;51.538;6.728;2023-04-15T09:19:27;100832.13;;;11.46;86.77
19086;BME280;9675;51.538;6.728;2023-04-15T09:21:57;100840.91;;;11.49;86.39
19086;BME280;9675;51.538;6.728;2023-04-15T09:24:34;100845.50;;;11.57;86.86
19086;BME280;9675;51.538;6.728;2023-04-15T09:27:03;100843.22;;;11.63;86.70
19086;BME280;9675;51.538;6.728;2023-04-15T09:29:30;100854.63;;;11.68;86.73
19086;BME280;9675;51.538;6.728;2023-04-15T09:32:08;100854.94;;;11.74;86.50
19086;BME280;9675;51.538;6.728;2023-04-15T09:34:36;100856.91;;;11.79;86.85
19086;BME280;9675;51.538;6.728;2023-04-15T09:37:03;100856.31;;;11.85;86.30
19086;BME280;9675;51.538;6.728;2023-04-15T09:39:47;100861.75;;;11.91;86.38
19086;BME280;9675;51.538;6.728;2023-04-15T09:42:15;100859.41;;;11.97;85.99
19086;BME280;9675;51.538;6.728;2023-04-15T09:44:49;100876.94;;;12.04;87.31
19086;BME280;9675;51.538;6.728;2023-04-15T09:47:34;100862.69;;;12.12;86.35
19086;BME280;9675;51.538;6.728;2023-04-15T09:50:01;100878.41;;;12.18;85.73
19086;BME280;9675;51.538;6.728;2023-04-15T09:52:29;100869.25;;;12.25;84.95
19086;BME280;9675;51.538;6.728;2023-04-15T09:54:59;100872.97;;;12.31;84.18
19086;BME280;9675;51.538;6.728;2023-04-15T09:57:34;100869.81;;;12.39;84.52
19086;BME280;9675;51.538;6.728;2023-04-15T10:00:02;100876.06;;;12.44;81.98
19086;BME280;9675;51.538;6.728;2023-04-15T10:02:30;100874.56;;;12.49;81.93
19086;BME280;9675;51.538;6.728;2023-04-15T10:05:00;100880.13;;;12.58;82.26
19086;BME280;9675;51.538;6.728;2023-04-15T10:07:28;100878.63;;;12.63;81.62
19086;BME280;9675;51.538;6.728;2023-04-15T10:09:55;100892.53;;;12.66;81.68
19086;BME280;9675;51.538;6.728;2023-04-15T10:12:27;100897.91;;;12.71;82.79
19086;BME280;9675;51.538;6.728;2023-04-15T10:14:59;100890.06;;;12.69;82.29
19086;BME280;9675;51.538;6.728;2023-04-15T10:17:31;100888.53;;;12.73;82.05
19086;BME280;9675;51.538;6.728;2023-04-15T10:20:00;100896.53;;;12.79;81.88
19086;BME280;9675;51.538;6.728;2023-04-15T10:22:30;100895.91;;;12.85;80.13
19086;BME280;9675;51.538;6.728;2023-04-15T10:24:58;100907.34;;;12.91;79.55
19086;BME280;9675;51.538;6.728;2023-04-15T10:27:27;100898.03;;;12.95;79.44
19086;BME280;9675;51.538;6.728;2023-04-15T10:29:56;100902.44;;;12.97;79.83
19086;BME280;9675;51.538;6.728;2023-04-15T10:32:24;100906.88;;;13.00;78.66
19086;BME280;9675;51.538;6.728;2023-04-15T10:34:53;100906.97;;;13.03;78.85
19086;BME280;9675;51.538;6.728;2023-04-15T10:37:33;100916.69;;;13.08;77.67
19086;BME280;9675;51.538;6.728;2023-04-15T10:40:00;100909.94;;;13.12;78.05
19086;BME280;9675;51.538;6.728;2023-04-15T10:42:33;100910.84;;;13.12;77.72
19086;BME280;9675;51.538;6.728;2023-04-15T10:45:01;100912.69;;;13.15;77.30
19086;BME280;9675;51.538;6.728;2023-04-15T10:47:31;100914.38;;;13.14;77.04
19086;BME280;9675;51.538;6.728;2023-04-15T10:50:00;100917.06;;;13.17;76.19
19086;BME280;9675;51.538;6.728;2023-04-15T10:52:28;100912.94;;;13.21;76.01
19086;BME280;9675;51.538;6.728;2023-04-15T10:55:14;100925.09;;;13.24;76.07
19086;BME280;9675;51.538;6.728;2023-04-15T10:57:46;100922.38;;;13.21;76.09
19086;BME280;9675;51.538;6.728;2023-04-15T11:00:16;100928.44;;;13.21;75.81
19086;BME280;9675;51.538;6.728;2023-04-15T11:02:46;100922.50;;;13.24;76.10
19086;BME280;9675;51.538;6.728;2023-04-15T11:05:15;100927.78;;;13.27;75.75
19086;BME280;9675;51.538;6.728;2023-04-15T11:07:51;100933.91;;;13.29;75.87
19086;BME280;9675;51.538;6.728;2023-04-15T11:10:50;100928.03;;;13.33;74.22
19086;BME280;9675;51.538;6.728;2023-04-15T11:13:31;100924.63;;;13.34;73.55
19086;BME280;9675;51.538;6.728;2023-04-15T11:16:01;100926.41;;;13.35;74.01
19086;BME280;9675;51.538;6.728;2023-04-15T11:18:33;100934.97;;;13.34;74.31
19086;BME280;9675;51.538;6.728;2023-04-15T11:21:04;100940.25;;;13.37;73.84
19086;BME280;9675;51.538;6.728;2023-04-15T11:23:38;100942.72;;;13.34;73.91
19086;BME280;9675;51.538;6.728;2023-04-15T11:26:07;100940.97;;;13.33;73.80
19086;BME280;9675;51.538;6.728;2023-04-15T11:28:39;100948.72;;;13.33;72.25
19086;BME280;9675;51.538;6.728;2023-04-15T11:31:09;100948.72;;;13.33;72.62
19086;BME280;9675;51.538;6.728;2023-04-15T11:33:38;100941.91;;;13.35;72.85
19086;BME280;9675;51.538;6.728;2023-04-15T11:36:10;100955.91;;;13.40;72.50
19086;BME280;9675;51.538;6.728;2023-04-15T11:38:41;100949.22;;;13.45;71.95
19086;BME280;9675;51.538;6.728;2023-04-15T11:41:08;100962.34;;;13.49;72.54
19086;BME280;9675;51.538;6.728;2023-04-15T11:43:37;100964.22;;;13.53;71.27
19086;BME280;9675;51.538;6.728;2023-04-15T11:46:04;100969.53;;;13.56;71.84
19086;BME280;9675;51.538;6.728;2023-04-15T11:48:33;100962.34;;;13.49;70.81
19086;BME280;9675;51.538;6.728;2023-04-15T11:51:02;100965.81;;;13.50;71.70
19086;BME280;9675;51.538;6.728;2023-04-15T11:53:38;100967.56;;;13.51;71.21
19086;BME280;9675;51.538;6.728;2023-04-15T11:56:07;100961.59;;;13.52;71.16
19086;BME280;9675;51.538;6.728;2023-04-15T11:58:37;100961.69;;;13.55;71.04
19086;BME280;9675;51.538;6.728;2023-04-15T12:01:06;100969.53;;;13.56;70.44
19086;BME280;9675;51.538;6.728;2023-04-15T12:03:38;100984.34;;;13.60;70.49
19086;BME280;9675;51.538;6.728;2023-04-15T12:06:16;100974.06;;;13.62;70.89
19086;BME280;9675;51.538;6.728;2023-04-15T12:08:54;100987.91;;;13.64;70.49
19086;BME280;9675;51.538;6.728;2023-04-15T12:11:45;100983.56;;;13.63;70.93
19086;BME280;9675;51.538;6.728;2023-04-15T12:14:23;100996.50;;;13.63;70.78
19086;BME280;9675;51.538;6.728;2023-04-15T12:16:52;100996.50;;;13.63;70.02
19086;BME280;9675;51.538;6.728;2023-04-15T12:19:25;100997.22;;;13.59;71.08
19086;BME280;9675;51.538;6.728;2023-04-15T12:21:57;100996.16;;;13.54;70.71
19086;BME280;9675;51.538;6.728;2023-04-15T12:24:25;100990.16;;;13.55;70.66
19086;BME280;9675;51.538;6.728;2023-04-15T12:26:55;100997.09;;;13.56;71.15
19086;BME280;9675;51.538;6.728;2023-04-15T12:29:27;100994.63;;;13.59;70.34
19086;BME280;9675;51.538;6.728;2023-04-15T12:31:57;101008.59;;;13.63;70.08
19086;BME280;9675;51.538;6.728;2023-04-15T12:34:30;101008.63;;;13.64;70.39
19086;BME280;9675;51.538;6.728;2023-04-15T12:37:00;101007.72;;;13.63;70.33
19086;BME280;9675;51.538;6.728;2023-04-15T12:39:30;101010.41;;;13.65;70.53
19086;BME280;9675;51.538;6.728;2023-04-15T12:41:58;101027.69;;;13.66;70.44
19086;BME280;9675;51.538;6.728;2023-04-15T12:44:27;101021.44;;;13.61;70.50
19086;BME280;9675;51.538;6.728;2023-04-15T12:46:55;101016.91;;;13.55;71.55
19086;BME280;9675;51.538;6.728;2023-04-15T12:49:23;101022.97;;;13.56;71.13
19086;BME280;9675;51.538;6.728;2023-04-15T12:51:53;101030.78;;;13.57;70.19
19086;BME280;9675;51.538;6.728;2023-04-15T12:54:20;101028.19;;;13.57;69.46
19086;BME280;9675;51.538;6.728;2023-04-15T12:56:49;101044.59;;;13.58;74.89
19086;BME280;9675;51.538;6.728;2023-04-15T12:59:17;101040.38;;;13.60;70.31
19086;BME280;9675;51.538;6.728;2023-04-15T13:01:46;101042.06;;;13.59;69.75
19086;BME280;9675;51.538;6.728;2023-04-15T13:04:14;101043.72;;;13.57;70.75
19086;BME280;9675;51.538;6.728;2023-04-15T13:06:42;101047.97;;;13.55;70.21
19086;BME280;9675;51.538;6.728;2023-04-15T13:09:09;101050.63;;;13.57;71.09